createdAt,value
2023-03-28T00:02:53.310Z,145.02
2023-03-28T00:07:54.997Z,144.30
2023-03-28T00:12:58.013Z,140.13
2023-03-28T00:18:01.918Z,139.43
2023-03-28T00:23:03.611Z,139.68
2023-03-28T00:28:06.736Z,135.10
2023-03-28T00:33:08.709Z,134.13
2023-03-28T00:38:12.283Z,131.23
2023-03-28T00:43:15.203Z,132.27
2023-03-28T00:48:19.806Z,128.27
2023-03-28T00:53:23.612Z,129.70
2023-03-28T00:58:32.808Z,127.65
2023-03-28T01:03:35.092Z,124.70
2023-03-28T01:08:42.038Z,120.47
2023-03-28T01:13:47.810Z,117.05
2023-03-28T01:18:50.260Z,117.28
2023-03-28T01:24:23.994Z,116.72
2023-03-28T01:30:02.455Z,115.25
2023-03-28T01:35:45.292Z,114.20
2023-03-28T01:40:53.378Z,112.45
2023-03-28T01:45:58.535Z,110.30
2023-03-28T01:56:14.906Z,104.68
2023-03-28T02:01:20.847Z,105.90
2023-03-28T02:06:23.233Z,105.68
2023-03-28T02:11:27.578Z,102.28
2023-03-28T02:16:52.961Z,101.47
2023-03-28T02:22:20.221Z,99.95
2023-03-28T02:27:53.742Z,99.88
2023-03-28T02:33:36.596Z,95.95
2023-03-28T02:38:43.738Z,94.38
2023-03-28T02:43:58.959Z,81.60
2023-03-28T02:49:22.294Z,73.60
2023-03-28T02:54:29.350Z,72.40
2023-03-28T02:59:55.431Z,72.65
2023-03-28T03:04:57.045Z,71.03
2023-03-28T03:09:58.748Z,69.88
2023-03-28T03:15:01.766Z,70.07
2023-03-28T03:20:41.559Z,65.63
2023-03-28T03:25:43.881Z,66.70
2023-03-28T03:31:13.348Z,64.72
2023-03-28T03:36:38.233Z,64.22
2023-03-28T03:41:45.400Z,64.30
2023-03-28T03:46:51.215Z,63.80
2023-03-28T03:51:53.039Z,62.58
2023-03-28T03:56:56.471Z,62.53
2023-03-28T04:02:05.952Z,74.82
2023-03-28T04:07:30.702Z,102.47
2023-03-28T04:12:32.324Z,122.25
2023-03-28T04:17:35.912Z,196.90
2023-03-28T04:22:58.010Z,104.22
2023-03-28T04:27:59.662Z,133.90
2023-03-28T04:33:06.265Z,130.95
2023-03-28T04:38:20.425Z,126.00
2023-03-28T04:43:25.677Z,124.30
2023-03-28T04:48:29.985Z,121.80
2023-03-28T04:53:34.324Z,118.30
2023-03-28T04:59:07.979Z,116.28
2023-03-28T05:04:11.564Z,113.95
2023-03-28T05:09:18.584Z,112.57
2023-03-28T05:14:20.244Z,103.60
2023-03-28T05:19:26.689Z,103.10
2023-03-28T05:24:41.084Z,100.57
2023-03-28T05:34:53.837Z,96.43
2023-03-28T05:39:56.470Z,93.93
2023-03-28T05:44:58.141Z,93.63
2023-03-28T05:50:04.844Z,89.63
2023-03-28T05:55:07.275Z,86.50
2023-03-28T06:00:13.118Z,83.28
2023-03-28T06:05:25.687Z,81.55
2023-03-28T06:10:30.074Z,78.45
2023-03-28T06:15:48.768Z,77.82
2023-03-28T06:20:53.276Z,77.53
2023-03-28T06:25:55.027Z,74.68
2023-03-28T06:30:57.551Z,75.35
2023-03-28T06:36:00.590Z,70.68
2023-03-28T06:41:11.907Z,70.35
2023-03-28T06:46:19.650Z,66.25
2023-03-28T06:51:23.907Z,66.47
2023-03-28T06:56:27.291Z,65.30
2023-03-28T07:01:32.716Z,63.35
2023-03-28T07:06:45.384Z,63.15
2023-03-28T07:11:47.033Z,61.72
2023-03-28T07:16:50.648Z,59.95
2023-03-28T07:21:56.342Z,57.83
2023-03-28T07:27:14.153Z,57.80
2023-03-28T07:32:17.908Z,56.88
2023-03-28T07:37:22.073Z,55.85
2023-03-28T07:42:44.068Z,55.15
2023-03-28T07:47:45.789Z,53.92
2023-03-28T07:52:48.849Z,51.70
2023-03-28T07:57:53.020Z,52.85
2023-03-28T08:03:07.073Z,50.83
2023-03-28T08:08:10.455Z,49.22
2023-03-28T08:13:12.127Z,46.92
2023-03-28T08:18:14.232Z,46.42
2023-03-28T08:23:18.056Z,46.65
2023-03-28T08:28:52.266Z,47.08
2023-03-28T08:33:56.461Z,45.15
2023-03-28T08:39:03.914Z,42.97
2023-03-28T08:44:17.572Z,43.58
2023-03-28T08:49:21.098Z,43.08
2023-03-28T08:54:27.138Z,42.33
2023-03-28T08:59:37.937Z,42.05
2023-03-28T09:04:39.617Z,41.10
2023-03-28T09:09:59.655Z,40.75
2023-03-28T09:15:40.517Z,41.97
2023-03-28T09:20:49.353Z,38.20
2023-03-28T09:26:10.361Z,40.38
2023-03-28T09:31:14.415Z,38.30
2023-03-28T09:36:19.211Z,38.15
2023-03-28T09:41:29.466Z,36.33
2023-03-28T09:46:55.167Z,37.35
2023-03-28T09:52:10.748Z,35.78
2023-03-28T09:57:14.069Z,36.25
2023-03-28T10:02:38.356Z,35.20
2023-03-28T10:07:45.721Z,33.67
2023-03-28T10:13:03.088Z,34.53
2023-03-28T10:18:08.205Z,33.08
2023-03-28T10:23:15.211Z,32.35
2023-03-28T10:28:23.575Z,32.67
2023-03-28T10:33:27.398Z,32.13
2023-03-28T10:38:52.183Z,31.38
2023-03-28T10:43:56.763Z,30.33
2023-03-28T10:49:29.156Z,30.00
2023-03-28T10:54:50.510Z,29.75
2023-03-28T11:00:09.172Z,27.67
2023-03-28T11:05:22.337Z,27.20
2023-03-28T11:10:27.345Z,28.17
2023-03-28T11:15:42.121Z,27.08
2023-03-28T11:20:56.073Z,26.63
2023-03-28T11:26:03.535Z,27.15
2023-03-28T11:31:30.492Z,25.70
2023-03-28T11:36:39.465Z,25.67
2023-03-28T11:41:43.573Z,25.30
2023-03-28T11:46:56.690Z,25.42
2023-03-28T11:52:01.843Z,24.10
2023-03-28T11:57:08.783Z,24.00
2023-03-28T12:02:42.676Z,22.17
2023-03-28T12:07:50.186Z,22.70
2023-03-28T12:13:05.862Z,22.13
2023-03-28T12:18:22.557Z,22.20
2023-03-28T12:23:30.915Z,20.73
2023-03-28T12:28:56.519Z,21.63
2023-03-28T12:34:04.375Z,21.38
2023-03-28T12:39:33.097Z,20.13
2023-03-28T12:44:40.615Z,20.05
2023-03-28T12:49:48.517Z,19.15
2023-03-28T12:54:57.774Z,19.45
2023-03-28T13:00:16.728Z,19.85
2023-03-28T13:05:47.442Z,18.60
2023-03-28T13:11:03.471Z,17.75
2023-03-28T13:16:06.934Z,18.30
2023-03-28T13:21:09.979Z,18.27
2023-03-28T13:26:14.523Z,16.70
2023-03-28T13:31:21.402Z,17.05
2023-03-28T13:36:29.786Z,17.05
2023-03-28T13:42:07.881Z,17.00
2023-03-28T13:47:19.474Z,15.68
2023-03-28T13:52:28.169Z,16.45
2023-03-28T13:57:29.901Z,15.65
2023-03-28T14:02:36.174Z,16.02
2023-03-28T14:07:39.414Z,16.05
2023-03-28T14:12:41.165Z,15.20
2023-03-28T14:17:42.811Z,14.27
2023-03-28T14:22:59.844Z,15.13
2023-03-28T14:28:07.233Z,14.10
2023-03-28T14:33:18.914Z,14.13
2023-03-28T14:38:29.874Z,14.00
2023-03-28T14:43:31.577Z,14.55
2023-03-28T14:48:34.249Z,13.68
2023-03-28T14:53:41.511Z,14.05
2023-03-28T14:58:45.685Z,13.00
2023-03-28T15:03:49.616Z,12.65
2023-03-28T15:08:52.651Z,12.50
2023-03-28T15:14:00.238Z,12.48
2023-03-28T15:19:04.448Z,24.50
2023-03-28T15:24:10.365Z,29.48
2023-03-28T15:29:16.271Z,55.88
2023-03-28T15:34:22.979Z,79.07
2023-03-28T15:39:27.566Z,90.30
2023-03-28T15:44:30.887Z,113.00
2023-03-28T15:49:35.549Z,131.02
2023-03-28T15:54:43.360Z,121.88
2023-03-28T15:59:49.468Z,105.30
2023-03-28T16:05:02.254Z,89.07
2023-03-28T16:10:06.362Z,80.22
2023-03-28T16:15:22.315Z,14.15
2023-03-28T16:20:36.481Z,4.40
2023-03-28T16:25:42.774Z,4.38
2023-03-28T16:30:45.440Z,3.67
2023-03-28T16:35:48.852Z,201.07
2023-03-28T16:40:54.121Z,35.80
2023-03-28T16:46:02.137Z,7.50
2023-03-28T16:51:04.480Z,73.63
2023-03-28T16:56:10.928Z,43.22
2023-03-28T17:01:14.817Z,28.50
2023-03-28T17:06:18.470Z,171.02
2023-03-28T17:11:22.225Z,85.00
2023-03-28T17:16:24.143Z,57.45
2023-03-28T17:21:25.808Z,42.03
2023-03-28T17:26:28.857Z,35.10
2023-03-28T17:31:33.506Z,31.73
2023-03-28T17:36:35.645Z,27.83
2023-03-28T17:41:38.705Z,28.60
2023-03-28T17:46:42.958Z,29.10
2023-03-28T17:51:44.684Z,447.67
2023-03-28T17:56:47.846Z,274.85
2023-03-28T18:01:49.751Z,173.90
2023-03-28T18:06:51.527Z,125.93
2023-03-28T18:11:57.898Z,105.70
2023-03-28T18:16:59.588Z,98.40
2023-03-28T18:22:07.034Z,269.00
2023-03-28T18:27:10.233Z,358.35
2023-03-28T18:32:12.200Z,328.50
2023-03-28T18:37:14.088Z,295.88
2023-03-28T18:42:21.052Z,256.20
2023-03-28T18:47:22.673Z,230.43
2023-03-28T18:52:24.455Z,222.82
2023-03-28T18:57:30.260Z,184.88
2023-03-28T19:02:32.064Z,160.35
2023-03-28T19:07:33.864Z,289.20
2023-03-28T19:12:37.486Z,500.92
2023-03-28T19:17:41.713Z,432.20
2023-03-28T19:22:43.481Z,362.08
2023-03-28T19:27:46.864Z,301.58
2023-03-28T19:32:48.745Z,292.10
2023-03-28T19:37:52.290Z,293.98
2023-03-28T19:42:55.389Z,526.90
2023-03-28T19:48:00.517Z,429.92
2023-03-28T19:53:02.300Z,401.13
2023-03-28T19:58:06.782Z,580.88
2023-03-28T20:03:08.546Z,528.63
2023-03-28T20:08:13.434Z,491.27
2023-03-28T20:13:24.615Z,476.92
2023-03-28T20:18:27.978Z,460.88
2023-03-28T20:23:44.003Z,439.88
2023-03-28T20:28:47.813Z,430.58
2023-03-28T20:33:51.961Z,422.70
2023-03-28T20:38:53.642Z,400.70
2023-03-28T20:43:59.826Z,398.70
2023-03-28T20:49:01.453Z,377.23
2023-03-28T20:54:03.786Z,376.65
2023-03-28T20:59:09.856Z,380.00
2023-03-28T21:04:11.506Z,361.17
2023-03-28T21:09:13.971Z,365.80
2023-03-28T21:14:17.208Z,366.98
2023-03-28T21:19:18.833Z,361.77
2023-03-28T21:24:20.618Z,361.40
2023-03-28T21:29:23.615Z,355.33
2023-03-28T21:34:25.279Z,349.33
2023-03-28T21:39:26.896Z,349.75
2023-03-28T21:44:29.847Z,348.00
2023-03-28T21:49:33.163Z,346.48
2023-03-28T21:54:35.007Z,345.98
2023-03-28T21:59:38.390Z,334.17
2023-03-28T22:04:41.650Z,337.58
2023-03-28T22:09:43.315Z,335.13
2023-03-28T22:14:48.630Z,329.75
2023-03-28T22:19:53.474Z,328.38
2023-03-28T22:24:55.139Z,323.40
2023-03-28T22:29:59.526Z,316.25
2023-03-28T22:35:01.189Z,306.52
2023-03-28T22:40:04.904Z,308.98
2023-03-28T22:45:09.324Z,309.00
2023-03-28T22:50:11.823Z,307.17
2023-03-28T22:55:15.198Z,299.10
2023-03-28T23:00:29.104Z,296.05
2023-03-28T23:05:30.993Z,299.20
2023-03-28T23:10:35.824Z,296.05
2023-03-28T23:15:39.210Z,291.42
2023-03-28T23:20:40.856Z,284.58
2023-03-28T23:25:42.449Z,288.27
2023-03-28T23:30:45.432Z,280.33
2023-03-28T23:35:49.973Z,274.90
2023-03-28T23:40:55.667Z,277.23
2023-03-28T23:45:59.170Z,266.90
2023-03-28T23:51:04.363Z,270.63
2023-03-28T23:56:12.130Z,266.15
